sensor_id;sensor_type;location;lat;lon;timestamp;pressure;altitude;pressure_sealevel;temperature;humidity
57050;BME280;42935;50.966;16.992;2023-02-19T00:01:26;101323.13;;;4.80;100.00
57050;BME280;42935;50.966;16.992;2023-02-19T00:04:36;101311.48;;;4.76;100.00
57050;BME280;42935;50.966;16.992;2023-02-19T00:07:43;101311.37;;;4.75;100.00
57050;BME280;42935;50.966;16.992;2023-02-19T00:10:47;101318.87;;;4.79;100.00
57050;BME280;42935;50.966;16.992;2023-02-19T00:13:58;101303.42;;;4.77;100.00
57050;BME280;42935;50.966;16.992;2023-02-19T00:17:05;101318.88;;;4.80;100.00
57050;BME280;42935;50.966;16.992;2023-02-19T00:20:16;101302.57;;;4.77;100.00
57050;BME280;42935;50.966;16.992;2023-02-19T00:23:27;101314.89;;;4.77;100.00
57050;BME280;42935;50.966;16.992;2023-02-19T00:26:34;101306.59;;;4.83;100.00
57050;BME280;42935;50.966;16.992;2023-02-19T00:29:47;101294.95;;;4.86;100.00
57050;BME280;42935;50.966;16.992;2023-02-19T00:32:53;101277.46;;;4.83;100.00
57050;BME280;42935;50.966;16.992;2023-02-19T00:36:04;101284.41;;;4.89;100.00
57050;BME280;42935;50.966;16.992;2023-02-19T00:39:13;101274.24;;;4.88;100.00
57050;BME280;42935;50.966;16.992;2023-02-19T00:42:22;101283.63;;;4.94;100.00
57050;BME280;42935;50.966;16.992;2023-02-19T00:45:30;101289.11;;;4.98;100.00
57050;BME280;42935;50.966;16.992;2023-02-19T00:48:37;101276.88;;;4.90;100.00
57050;BME280;42935;50.966;16.992;2023-02-19T00:51:52;101288.27;;;4.95;100.00
57050;BME280;42935;50.966;16.992;2023-02-19T00:54:59;101282.77;;;4.93;100.00
57050;BME280;42935;50.966;16.992;2023-02-19T00:58:08;101280.58;;;4.95;100.00
57050;BME280;42935;50.966;16.992;2023-02-19T01:01:21;101255.54;;;4.87;100.00
57050;BME280;42935;50.966;16.992;2023-02-19T01:04:28;101274.17;;;5.01;100.00
57050;BME280;42935;50.966;16.992;2023-02-19T01:07:35;101273.91;;;4.98;100.00
57050;BME280;42935;50.966;16.992;2023-02-19T01:10:43;101260.48;;;4.88;100.00
57050;BME280;42935;50.966;16.992;2023-02-19T01:13:50;101260.68;;;4.89;100.00
57050;BME280;42935;50.966;16.992;2023-02-19T01:16:55;101266.77;;;4.89;100.00
57050;BME280;42935;50.966;16.992;2023-02-19T01:20:00;101269.71;;;4.90;100.00
57050;BME280;42935;50.966;16.992;2023-02-19T01:23:08;101256.79;;;4.78;100.00
57050;BME280;42935;50.966;16.992;2023-02-19T01:26:23;101268.48;;;4.78;100.00
57050;BME280;42935;50.966;16.992;2023-02-19T01:29:31;101254.52;;;4.68;100.00
57050;BME280;42935;50.966;16.992;2023-02-19T01:32:40;101249.92;;;4.66;100.00
57050;BME280;42935;50.966;16.992;2023-02-19T01:35:49;101256.59;;;4.71;100.00
57050;BME280;42935;50.966;16.992;2023-02-19T01:38:58;101256.34;;;4.71;100.00
57050;BME280;42935;50.966;16.992;2023-02-19T01:42:13;101244.80;;;4.62;100.00
57050;BME280;42935;50.966;16.992;2023-02-19T01:45:28;101240.29;;;4.66;100.00
57050;BME280;42935;50.966;16.992;2023-02-19T01:48:46;101240.09;;;4.65;100.00
57050;BME280;42935;50.966;16.992;2023-02-19T01:55:15;101222.68;;;4.63;100.00
57050;BME280;42935;50.966;16.992;2023-02-19T01:58:23;101229.45;;;4.68;100.00
57050;BME280;42935;50.966;16.992;2023-02-19T02:01:36;101220.02;;;4.69;100.00
57050;BME280;42935;50.966;16.992;2023-02-19T02:04:46;101208.01;;;4.65;100.00
57050;BME280;42935;50.966;16.992;2023-02-19T02:07:53;101201.22;;;4.70;100.00
57050;BME280;42935;50.966;16.992;2023-02-19T02:11:13;101150.36;;;4.34;100.00
57050;BME280;42935;50.966;16.992;2023-02-19T02:14:26;101187.74;;;4.62;100.00
57050;BME280;42935;50.966;16.992;2023-02-19T02:17:40;101190.73;;;4.65;100.00
57050;BME280;42935;50.966;16.992;2023-02-19T02:21:10;101181.17;;;4.56;100.00
57050;BME280;42935;50.966;16.992;2023-02-19T02:27:37;101176.84;;;4.61;100.00
57050;BME280;42935;50.966;16.992;2023-02-19T02:30:59;101171.03;;;4.64;100.00
57050;BME280;42935;50.966;16.992;2023-02-19T02:37:25;101171.62;;;4.62;100.00
57050;BME280;42935;50.966;16.992;2023-02-19T02:40:34;101160.40;;;4.54;100.00
57050;BME280;42935;50.966;16.992;2023-02-19T02:43:44;101168.16;;;4.67;100.00
57050;BME280;42935;50.966;16.992;2023-02-19T02:46:54;101172.68;;;4.68;100.00
57050;BME280;42935;50.966;16.992;2023-02-19T02:50:02;101171.14;;;4.66;100.00
57050;BME280;42935;50.966;16.992;2023-02-19T02:53:21;101169.76;;;4.67;100.00
57050;BME280;42935;50.966;16.992;2023-02-19T02:56:43;101167.68;;;4.66;100.00
57050;BME280;42935;50.966;16.992;2023-02-19T02:59:55;101150.05;;;4.70;100.00
57050;BME280;42935;50.966;16.992;2023-02-19T03:03:05;101159.09;;;4.83;100.00
57050;BME280;42935;50.966;16.992;2023-02-19T03:06:13;101144.74;;;4.84;100.00
57050;BME280;42935;50.966;16.992;2023-02-19T03:09:27;101137.41;;;4.88;100.00
57050;BME280;42935;50.966;16.992;2023-02-19T03:12:39;101123.77;;;4.94;100.00
57050;BME280;42935;50.966;16.992;2023-02-19T03:16:05;101140.73;;;5.10;100.00
57050;BME280;42935;50.966;16.992;2023-02-19T03:19:37;101129.05;;;5.25;100.00
57050;BME280;42935;50.966;16.992;2023-02-19T03:22:52;101138.02;;;5.11;100.00
57050;BME280;42935;50.966;16.992;2023-02-19T03:26:03;101131.89;;;5.02;100.00
57050;BME280;42935;50.966;16.992;2023-02-19T03:29:14;101146.91;;;4.93;100.00
57050;BME280;42935;50.966;16.992;2023-02-19T03:32:38;101138.03;;;4.77;100.00
57050;BME280;42935;50.966;16.992;2023-02-19T03:35:58;101118.79;;;5.05;100.00
57050;BME280;42935;50.966;16.992;2023-02-19T03:39:16;101112.87;;;5.20;100.00
57050;BME280;42935;50.966;16.992;2023-02-19T03:49:17;101101.13;;;4.98;100.00
57050;BME280;42935;50.966;16.992;2023-02-19T03:52:38;101094.92;;;4.99;100.00
57050;BME280;42935;50.966;16.992;2023-02-19T04:06:04;101114.41;;;4.71;100.00
57050;BME280;42935;50.966;16.992;2023-02-19T04:09:14;101104.66;;;4.69;100.00
57050;BME280;42935;50.966;16.992;2023-02-19T04:12:25;101111.48;;;4.74;100.00
57050;BME280;42935;50.966;16.992;2023-02-19T04:15:36;101105.64;;;4.76;100.00
57050;BME280;42935;50.966;16.992;2023-02-19T04:18:58;101091.12;;;4.71;100.00
57050;BME280;42935;50.966;16.992;2023-02-19T04:22:11;101107.38;;;4.78;100.00
57050;BME280;42935;50.966;16.992;2023-02-19T04:25:17;101107.11;;;4.76;100.00
57050;BME280;42935;50.966;16.992;2023-02-19T04:28:25;101106.93;;;4.80;100.00
57050;BME280;42935;50.966;16.992;2023-02-19T04:31:37;101106.30;;;4.81;100.00
57050;BME280;42935;50.966;16.992;2023-02-19T04:34:47;101096.95;;;4.74;100.00
57050;BME280;42935;50.966;16.992;2023-02-19T04:37:57;101099.24;;;4.77;100.00
57050;BME280;42935;50.966;16.992;2023-02-19T04:41:08;101103.76;;;4.75;100.00
57050;BME280;42935;50.966;16.992;2023-02-19T04:44:19;101098.63;;;4.80;100.00
57050;BME280;42935;50.966;16.992;2023-02-19T04:47:31;101084.55;;;4.77;100.00
57050;BME280;42935;50.966;16.992;2023-02-19T04:50:40;101097.63;;;4.84;100.00
57050;BME280;42935;50.966;16.992;2023-02-19T04:53:52;101081.37;;;4.64;100.00
57050;BME280;42935;50.966;16.992;2023-02-19T04:56:57;101088.63;;;4.72;100.00
57050;BME280;42935;50.966;16.992;2023-02-19T05:00:08;101094.59;;;4.73;100.00
57050;BME280;42935;50.966;16.992;2023-02-19T05:03:15;101093.19;;;4.74;100.00
57050;BME280;42935;50.966;16.992;2023-02-19T05:06:28;101091.66;;;4.72;100.00
57050;BME280;42935;50.966;16.992;2023-02-19T05:09:35;101075.45;;;4.62;100.00
57050;BME280;42935;50.966;16.992;2023-02-19T05:12:44;101075.54;;;4.72;100.00
57050;BME280;42935;50.966;16.992;2023-02-19T05:16:00;101074.94;;;4.66;100.00
57050;BME280;42935;50.966;16.992;2023-02-19T05:19:12;101064.00;;;4.62;100.00
57050;BME280;42935;50.966;16.992;2023-02-19T05:22:29;101067.52;;;4.72;100.00
57050;BME280;42935;50.966;16.992;2023-02-19T05:25:39;101065.99;;;4.75;100.00
57050;BME280;42935;50.966;16.992;2023-02-19T05:28:52;101068.05;;;4.79;100.00
57050;BME280;42935;50.966;16.992;2023-02-19T05:32:01;101069.88;;;4.76;100.00
57050;BME280;42935;50.966;16.992;2023-02-19T05:35:10;101063.91;;;4.84;100.00
57050;BME280;42935;50.966;16.992;2023-02-19T05:38:20;101059.43;;;4.89;100.00
57050;BME280;42935;50.966;16.992;2023-02-19T05:41:35;101057.17;;;4.90;100.00
57050;BME280;42935;50.966;16.992;2023-02-19T05:44:49;101057.66;;;4.99;100.00
57050;BME280;42935;50.966;16.992;2023-02-19T05:47:57;101042.08;;;4.86;100.00
57050;BME280;42935;50.966;16.992;2023-02-19T05:51:13;101056.80;;;4.80;100.00
57050;BME280;42935;50.966;16.992;2023-02-19T05:54:22;101049.15;;;4.80;100.00
57050;BME280;42935;50.966;16.992;2023-02-19T05:57:32;101056.28;;;4.94;100.00
57050;BME280;42935;50.966;16.992;2023-02-19T06:00:42;101016.42;;;4.97;100.00
57050;BME280;42935;50.966;16.992;2023-02-19T06:03:52;101033.95;;;5.27;100.00
57050;BME280;42935;50.966;16.992;2023-02-19T06:07:01;101043.40;;;5.43;100.00
57050;BME280;42935;50.966;16.992;2023-02-19T06:10:11;101046.59;;;5.52;100.00
57050;BME280;42935;50.966;16.992;2023-02-19T06:13:24;101048.99;;;5.60;100.00
57050;BME280;42935;50.966;16.992;2023-02-19T06:16:37;101045.04;;;5.57;100.00
57050;BME280;42935;50.966;16.992;2023-02-19T06:19:49;101048.31;;;5.53;100.00
57050;BME280;42935;50.966;16.992;2023-02-19T06:22:57;101038.37;;;5.54;100.00
57050;BME280;42935;50.966;16.992;2023-02-19T06:26:12;101041.88;;;5.57;100.00
57050;BME280;42935;50.966;16.992;2023-02-19T06:29:22;101048.35;;;5.57;100.00
57050;BME280;42935;50.966;16.992;2023-02-19T06:32:31;101040.69;;;5.57;100.00
57050;BME280;42935;50.966;16.992;2023-02-19T06:35:38;101051.35;;;5.66;100.00
57050;BME280;42935;50.966;16.992;2023-02-19T06:38:47;101052.58;;;5.65;100.00
57050;BME280;42935;50.966;16.992;2023-02-19T06:41:57;101061.55;;;5.63;100.00
57050;BME280;42935;50.966;16.992;2023-02-19T06:45:08;101074.81;;;5.53;100.00
57050;BME280;42935;50.966;16.992;2023-02-19T06:48:17;101068.98;;;5.12;100.00
57050;BME280;42935;50.966;16.992;2023-02-19T06:51:25;101078.45;;;5.09;100.00
57050;BME280;42935;50.966;16.992;2023-02-19T06:54:42;101078.94;;;4.98;100.00
57050;BME280;42935;50.966;16.992;2023-02-19T06:57:52;101071.77;;;4.86;100.00
57050;BME280;42935;50.966;16.992;2023-02-19T07:01:06;101079.10;;;4.87;100.00
57050;BME280;42935;50.966;16.992;2023-02-19T07:04:18;101082.15;;;4.87;100.00
57050;BME280;42935;50.966;16.992;2023-02-19T07:07:25;101074.48;;;4.85;100.00
57050;BME280;42935;50.966;16.992;2023-02-19T07:10:35;101088.63;;;4.82;100.00
57050;BME280;42935;50.966;16.992;2023-02-19T07:13:43;101094.25;;;4.77;100.00
57050;BME280;42935;50.966;16.992;2023-02-19T07:16:52;101097.20;;;4.83;100.00
57050;BME280;42935;50.966;16.992;2023-02-19T07:20:07;101090.41;;;4.78;100.00
57050;BME280;42935;50.966;16.992;2023-02-19T07:23:20;101101.04;;;4.77;100.00
57050;BME280;42935;50.966;16.992;2023-02-19T07:26:31;101096.21;;;4.69;100.00
57050;BME280;42935;50.966;16.992;2023-02-19T07:29:40;101100.63;;;4.62;100.00
57050;BME280;42935;50.966;16.992;2023-02-19T07:32:53;101118.87;;;4.76;100.00
57050;BME280;42935;50.966;16.992;2023-02-19T07:36:00;101121.18;;;4.79;100.00
57050;BME280;42935;50.966;16.992;2023-02-19T07:39:12;101124.61;;;4.71;100.00
57050;BME280;42935;50.966;16.992;2023-02-19T07:42:22;101113.19;;;4.64;100.00
57050;BME280;42935;50.966;16.992;2023-02-19T07:45:35;101111.38;;;4.75;100.00
57050;BME280;42935;50.966;16.992;2023-02-19T07:48:46;101132.54;;;4.60;100.00
57050;BME280;42935;50.966;16.992;2023-02-19T07:51:51;101129.62;;;4.34;100.00
57050;BME280;42935;50.966;16.992;2023-02-19T07:55:00;101153.43;;;4.26;100.00
57050;BME280;42935;50.966;16.992;2023-02-19T07:58:11;101169.23;;;4.08;100.00
57050;BME280;42935;50.966;16.992;2023-02-19T08:01:22;101170.04;;;3.96;100.00
57050;BME280;42935;50.966;16.992;2023-02-19T08:04:47;101186.88;;;4.01;100.00
57050;BME280;42935;50.966;16.992;2023-02-19T08:08:05;101181.71;;;3.84;100.00
57050;BME280;42935;50.966;16.992;2023-02-19T08:11:16;101184.04;;;3.80;100.00
57050;BME280;42935;50.966;16.992;2023-02-19T08:14:37;101187.48;;;3.84;100.00
57050;BME280;42935;50.966;16.992;2023-02-19T08:17:44;101188.74;;;3.58;100.00
57050;BME280;42935;50.966;16.992;2023-02-19T08:20:55;101196.23;;;3.67;100.00
57050;BME280;42935;50.966;16.992;2023-02-19T08:24:06;101222.98;;;3.71;100.00
57050;BME280;42935;50.966;16.992;2023-02-19T08:27:15;101228.56;;;3.53;100.00
57050;BME280;42935;50.966;16.992;2023-02-19T08:30:25;101235.06;;;3.47;100.00
57050;BME280;42935;50.966;16.992;2023-02-19T08:33:36;101229.04;;;3.24;100.00
57050;BME280;42935;50.966;16.992;2023-02-19T08:36:46;101258.61;;;3.28;100.00
57050;BME280;42935;50.966;16.992;2023-02-19T08:39:52;101253.01;;;3.06;100.00
57050;BME280;42935;50.966;16.992;2023-02-19T08:46:15;101262.71;;;3.13;100.00
57050;BME280;42935;50.966;16.992;2023-02-19T08:49:27;101266.70;;;2.93;100.00
57050;BME280;42935;50.966;16.992;2023-02-19T08:52:33;101273.00;;;2.84;100.00
57050;BME280;42935;50.966;16.992;2023-02-19T08:55:45;101276.01;;;2.81;100.00
57050;BME280;42935;50.966;16.992;2023-02-19T08:58:58;101285.74;;;2.85;100.00
57050;BME280;42935;50.966;16.992;2023-02-19T09:02:08;101289.45;;;2.74;100.00
57050;BME280;42935;50.966;16.992;2023-02-19T09:05:20;101298.24;;;2.83;100.00
57050;BME280;42935;50.966;16.992;2023-02-19T09:08:30;101308.45;;;2.73;100.00
57050;BME280;42935;50.966;16.992;2023-02-19T09:11:33;101318.59;;;2.71;100.00
57050;BME280;42935;50.966;16.992;2023-02-19T09:14:41;101316.07;;;2.66;100.00
57050;BME280;42935;50.966;16.992;2023-02-19T09:17:52;101323.34;;;2.47;100.00
57050;BME280;42935;50.966;16.992;2023-02-19T09:21:03;101347.17;;;2.49;100.00
57050;BME280;42935;50.966;16.992;2023-02-19T09:24:12;101340.95;;;2.44;100.00
57050;BME280;42935;50.966;16.992;2023-02-19T09:27:21;101353.34;;;2.52;100.00
57050;BME280;42935;50.966;16.992;2023-02-19T09:30:30;101355.41;;;2.27;100.00
57050;BME280;42935;50.966;16.992;2023-02-19T09:33:47;101360.98;;;2.36;100.00
57050;BME280;42935;50.966;16.992;2023-02-19T09:36:57;101361.54;;;2.40;100.00
57050;BME280;42935;50.966;16.992;2023-02-19T09:40:07;101373.05;;;2.44;100.00
57050;BME280;42935;50.966;16.992;2023-02-19T09:43:18;101318.49;;;2.09;100.00
57050;BME280;42935;50.966;16.992;2023-02-19T09:46:43;101378.26;;;2.46;100.00
57050;BME280;42935;50.966;16.992;2023-02-19T09:49:45;101393.74;;;2.58;100.00
57050;BME280;42935;50.966;16.992;2023-02-19T09:52:58;101393.50;;;2.44;100.00
57050;BME280;42935;50.966;16.992;2023-02-19T09:56:09;101411.18;;;2.63;100.00
57050;BME280;42935;50.966;16.992;2023-02-19T09:59:22;101417.82;;;2.63;100.00
57050;BME280;42935;50.966;16.992;2023-02-19T10:02:31;101422.98;;;2.70;100.00
57050;BME280;42935;50.966;16.992;2023-02-19T10:05:40;101430.52;;;2.62;100.00
57050;BME280;42935;50.966;16.992;2023-02-19T10:12:12;101421.49;;;2.72;100.00
57050;BME280;42935;50.966;16.992;2023-02-19T10:18:47;101437.16;;;2.86;100.00
57050;BME280;42935;50.966;16.992;2023-02-19T10:21:57;101436.00;;;2.80;100.00
57050;BME280;42935;50.966;16.992;2023-02-19T10:25:05;101428.96;;;2.78;100.00
57050;BME280;42935;50.966;16.992;2023-02-19T10:28:20;101450.63;;;2.96;100.00
57050;BME280;42935;50.966;16.992;2023-02-19T10:31:32;101436.98;;;2.77;100.00
57050;BME280;42935;50.966;16.992;2023-02-19T10:34:41;101452.92;;;2.82;100.00
57050;BME280;42935;50.966;16.992;2023-02-19T10:37:51;101475.17;;;2.85;100.00
57050;BME280;42935;50.966;16.992;2023-02-19T10:41:07;101478.57;;;2.86;100.00
57050;BME280;42935;50.966;16.992;2023-02-19T10:44:26;101477.11;;;2.75;100.00
57050;BME280;42935;50.966;16.992;2023-02-19T10:47:37;101491.97;;;2.68;100.00
57050;BME280;42935;50.966;16.992;2023-02-19T10:50:52;101497.23;;;2.71;100.00
57050;BME280;42935;50.966;16.992;2023-02-19T10:57:25;101496.58;;;2.86;100.00
57050;BME280;42935;50.966;16.992;2023-02-19T11:00:39;101499.98;;;2.80;100.00
57050;BME280;42935;50.966;16.992;2023-02-19T11:03:52;101511.09;;;2.99;100.00
57050;BME280;42935;50.966;16.992;2023-02-19T11:07:12;101512.99;;;3.07;100.00
57050;BME280;42935;50.966;16.992;2023-02-19T11:13:41;101520.12;;;3.28;100.00
57050;BME280;42935;50.966;16.992;2023-02-19T11:16:55;101516.32;;;3.13;100.00
57050;BME280;42935;50.966;16.992;2023-02-19T11:20:09;101515.60;;;3.29;100.00
57050;BME280;42935;50.966;16.992;2023-02-19T11:26:39;101529.42;;;3.23;100.00
57050;BME280;42935;50.966;16.992;2023-02-19T11:29:45;101529.17;;;3.19;100.00
57050;BME280;42935;50.966;16.992;2023-02-19T11:33:01;101528.48;;;3.20;100.00
57050;BME280;42935;50.966;16.992;2023-02-19T11:39:30;101529.90;;;3.49;100.00
57050;BME280;42935;50.966;16.992;2023-02-19T11:42:50;101504.80;;;3.52;100.00
57050;BME280;42935;50.966;16.992;2023-02-19T11:56:14;101520.43;;;4.22;100.00
57050;BME280;42935;50.966;16.992;2023-02-19T11:59:39;101526.52;;;3.96;100.00
57050;BME280;42935;50.966;16.992;2023-02-19T12:02:59;101515.67;;;3.79;100.00
57050;BME280;42935;50.966;16.992;2023-02-19T12:09:44;101534.11;;;3.10;100.00
57050;BME280;42935;50.966;16.992;2023-02-19T12:26:22;101569.59;;;4.11;100.00
57050;BME280;42935;50.966;16.992;2023-02-19T12:36:26;101593.95;;;3.36;100.00
57050;BME280;42935;50.966;16.992;2023-02-19T12:46:33;101597.40;;;3.72;100.00
57050;BME280;42935;50.966;16.992;2023-02-19T12:49:42;101582.63;;;3.90;100.00
57050;BME280;42935;50.966;16.992;2023-02-19T12:56:18;101583.98;;;4.29;100.00
57050;BME280;42935;50.966;16.992;2023-02-19T12:59:40;101595.16;;;3.92;100.00
57050;BME280;42935;50.966;16.992;2023-02-19T13:09:40;101620.68;;;3.64;100.00
57050;BME280;42935;50.966;16.992;2023-02-19T13:12:52;101617.78;;;3.54;100.00
57050;BME280;42935;50.966;16.992;2023-02-19T13:19:24;101636.05;;;3.60;100.00
57050;BME280;42935;50.966;16.992;2023-02-19T13:39:18;101643.83;;;3.87;90.88
57050;BME280;42935;50.966;16.992;2023-02-19T13:42:31;101642.30;;;4.00;91.46
57050;BME280;42935;50.966;16.992;2023-02-19T13:45:42;101637.49;;;4.21;93.15
57050;BME280;42935;50.966;16.992;2023-02-19T13:58:55;101641.25;;;4.47;87.12
57050;BME280;42935;50.966;16.992;2023-02-19T14:02:12;101657.03;;;4.47;86.40
57050;BME280;42935;50.966;16.992;2023-02-19T14:08:47;101662.78;;;4.67;87.80
57050;BME280;42935;50.966;16.992;2023-02-19T14:18:43;101675.91;;;4.33;85.64
57050;BME280;42935;50.966;16.992;2023-02-19T14:21:50;101670.98;;;4.29;86.04
57050;BME280;42935;50.966;16.992;2023-02-19T14:25:04;101671.42;;;4.14;85.40
57050;BME280;42935;50.966;16.992;2023-02-19T14:31:37;101710.35;;;4.02;82.90
57050;BME280;42935;50.966;16.992;2023-02-19T14:34:47;101702.69;;;3.77;82.36
57050;BME280;42935;50.966;16.992;2023-02-19T14:37:57;101701.16;;;3.70;87.98
57050;BME280;42935;50.966;16.992;2023-02-19T14:41:10;101700.36;;;3.55;83.38
57050;BME280;42935;50.966;16.992;2023-02-19T14:44:26;101714.86;;;3.49;85.04
57050;BME280;42935;50.966;16.992;2023-02-19T14:47:36;101713.08;;;3.37;88.16
57050;BME280;42935;50.966;16.992;2023-02-19T14:50:48;101722.84;;;3.25;87.28
57050;BME280;42935;50.966;16.992;2023-02-19T14:53:55;101728.09;;;3.16;88.77
57050;BME280;42935;50.966;16.992;2023-02-19T14:57:16;101728.34;;;3.01;88.31
57050;BME280;42935;50.966;16.992;2023-02-19T15:00:34;101739.94;;;2.99;85.31
57050;BME280;42935;50.966;16.992;2023-02-19T15:03:52;101754.38;;;3.00;87.34
57050;BME280;42935;50.966;16.992;2023-02-19T15:07:09;101751.38;;;3.40;89.39
57050;BME280;42935;50.966;16.992;2023-02-19T15:10:21;101756.17;;;3.20;89.06
57050;BME280;42935;50.966;16.992;2023-02-19T15:13:35;101762.48;;;3.12;91.61
57050;BME280;42935;50.966;16.992;2023-02-19T15:16:46;101775.78;;;3.15;87.82
57050;BME280;42935;50.966;16.992;2023-02-19T15:19:51;101781.02;;;3.22;87.68
57050;BME280;42935;50.966;16.992;2023-02-19T15:23:01;101769.99;;;3.27;87.00
57050;BME280;42935;50.966;16.992;2023-02-19T15:29:45;101764.29;;;3.25;82.32
57050;BME280;42935;50.966;16.992;2023-02-19T15:32:56;101762.91;;;3.08;83.06
57050;BME280;42935;50.966;16.992;2023-02-19T15:36:13;101768.48;;;3.27;82.33
57050;BME280;42935;50.966;16.992;2023-02-19T15:39:33;101791.32;;;3.47;82.68
57050;BME280;42935;50.966;16.992;2023-02-19T15:42:48;101786.41;;;3.33;83.86
57050;BME280;42935;50.966;16.992;2023-02-19T15:46:05;101802.03;;;3.26;83.22
57050;BME280;42935;50.966;16.992;2023-02-19T15:49:22;101806.20;;;3.04;84.24
57050;BME280;42935;50.966;16.992;2023-02-19T15:56:11;101812.21;;;2.81;86.32
57050;BME280;42935;50.966;16.992;2023-02-19T15:59:32;101814.83;;;2.65;87.67
57050;BME280;42935;50.966;16.992;2023-02-19T16:02:43;101829.98;;;2.65;87.83
57050;BME280;42935;50.966;16.992;2023-02-19T16:06:04;101832.37;;;2.46;90.39
57050;BME280;42935;50.966;16.992;2023-02-19T16:09:26;101845.60;;;2.50;90.63
57050;BME280;42935;50.966;16.992;2023-02-19T16:12:37;101855.70;;;2.34;94.31
57050;BME280;42935;50.966;16.992;2023-02-19T16:19:05;101851.28;;;2.09;95.97
57050;BME280;42935;50.966;16.992;2023-02-19T16:22:26;101876.48;;;2.17;96.04
57050;BME280;42935;50.966;16.992;2023-02-19T16:25:40;101864.01;;;2.10;94.14
57050;BME280;42935;50.966;16.992;2023-02-19T16:28:53;101877.92;;;2.06;95.77
57050;BME280;42935;50.966;16.992;2023-02-19T16:32:02;101878.33;;;2.01;94.53
57050;BME280;42935;50.966;16.992;2023-02-19T16:38:35;101891.80;;;1.92;94.55
57050;BME280;42935;50.966;16.992;2023-02-19T16:45:10;101905.91;;;1.82;96.22
57050;BME280;42935;50.966;16.992;2023-02-19T16:48:20;101855.79;;;1.37;96.98
57050;BME280;42935;50.966;16.992;2023-02-19T16:51:30;101905.44;;;1.63;98.85
57050;BME280;42935;50.966;16.992;2023-02-19T16:54:37;101902.61;;;1.54;99.51
57050;BME280;42935;50.966;16.992;2023-02-19T16:57:43;101923.66;;;1.55;100.00
57050;BME280;42935;50.966;16.992;2023-02-19T17:00:57;101932.38;;;1.55;100.00
57050;BME280;42935;50.966;16.992;2023-02-19T17:04:09;101942.73;;;1.57;100.00
57050;BME280;42935;50.966;16.992;2023-02-19T17:07:18;101933.76;;;1.48;100.00
57050;BME280;42935;50.966;16.992;2023-02-19T17:10:26;101958.29;;;1.58;100.00
57050;BME280;42935;50.966;16.992;2023-02-19T17:13:35;101956.63;;;1.42;100.00
57050;BME280;42935;50.966;16.992;2023-02-19T17:16:49;101959.08;;;1.39;100.00
57050;BME280;42935;50.966;16.992;2023-02-19T17:19:59;101979.13;;;1.55;100.00
57050;BME280;42935;50.966;16.992;2023-02-19T17:23:04;101981.40;;;1.57;100.00
57050;BME280;42935;50.966;16.992;2023-02-19T17:26:14;101973.79;;;1.53;100.00
57050;BME280;42935;50.966;16.992;2023-02-19T17:29:27;101987.18;;;1.62;100.00
57050;BME280;42935;50.966;16.992;2023-02-19T17:32:40;101989.02;;;1.68;100.00
57050;BME280;42935;50.966;16.992;2023-02-19T17:35:53;101979.64;;;1.72;99.00
57050;BME280;42935;50.966;16.992;2023-02-19T17:39:03;101968.75;;;1.72;98.04
57050;BME280;42935;50.966;16.992;2023-02-19T17:42:15;101985.13;;;1.73;99.17
57050;BME280;42935;50.966;16.992;2023-02-19T17:45:28;101987.80;;;1.74;99.07
57050;BME280;42935;50.966;16.992;2023-02-19T17:48:38;101970.34;;;1.63;99.98
57050;BME280;42935;50.966;16.992;2023-02-19T17:51:47;101997.68;;;1.73;100.00
57050;BME280;42935;50.966;16.992;2023-02-19T17:54:53;101991.70;;;1.67;100.00
57050;BME280;42935;50.966;16.992;2023-02-19T17:58:04;102008.98;;;1.70;100.00
57050;BME280;42935;50.966;16.992;2023-02-19T18:01:13;102014.40;;;1.69;100.00
57050;BME280;42935;50.966;16.992;2023-02-19T18:04:21;102019.43;;;1.67;100.00
57050;BME280;42935;50.966;16.992;2023-02-19T18:07:31;102013.60;;;1.52;100.00
57050;BME280;42935;50.966;16.992;2023-02-19T18:10:41;102018.70;;;1.42;100.00
57050;BME280;42935;50.966;16.992;2023-02-19T18:13:51;102026.23;;;1.40;100.00
57050;BME280;42935;50.966;16.992;2023-02-19T18:16:59;102029.78;;;1.26;100.00
57050;BME280;42935;50.966;16.992;2023-02-19T18:20:06;102008.84;;;1.13;100.00
57050;BME280;42935;50.966;16.992;2023-02-19T18:23:13;102027.86;;;1.24;100.00
57050;BME280;42935;50.966;16.992;2023-02-19T18:26:23;102042.88;;;1.29;100.00
57050;BME280;42935;50.966;16.992;2023-02-19T18:29:32;102046.77;;;1.24;100.00
57050;BME280;42935;50.966;16.992;2023-02-19T18:32:41;102041.30;;;1.21;100.00
57050;BME280;42935;50.966;16.992;2023-02-19T18:35:52;102036.48;;;1.23;100.00
57050;BME280;42935;50.966;16.992;2023-02-19T18:38:57;102051.56;;;1.31;100.00
57050;BME280;42935;50.966;16.992;2023-02-19T18:42:07;102057.27;;;1.33;100.00
57050;BME280;42935;50.966;16.992;2023-02-19T18:45:17;102071.09;;;1.42;100.00
57050;BME280;42935;50.966;16.992;2023-02-19T18:48:27;102078.95;;;1.39;100.00
57050;BME280;42935;50.966;16.992;2023-02-19T18:51:33;102063.45;;;1.31;100.00
57050;BME280;42935;50.966;16.992;2023-02-19T18:54:47;102060.08;;;1.31;100.00
57050;BME280;42935;50.966;16.992;2023-02-19T18:57:56;102078.89;;;1.44;100.00
57050;BME280;42935;50.966;16.992;2023-02-19T19:01:05;102077.46;;;1.38;100.00
57050;BME280;42935;50.966;16.992;2023-02-19T19:04:14;102068.71;;;1.27;100.00
57050;BME280;42935;50.966;16.992;2023-02-19T19:07:23;102082.62;;;1.31;100.00
57050;BME280;42935;50.966;16.992;2023-02-19T19:10:33;102078.24;;;1.28;100.00
57050;BME280;42935;50.966;16.992;2023-02-19T19:13:45;102086.46;;;1.27;100.00